createdAt,value
2019-05-05T00:01:55.376Z,7.80
2019-05-05T00:04:42.261Z,7.80
2019-05-05T00:07:14.933Z,7.80
2019-05-05T00:09:45.011Z,7.70
2019-05-05T00:12:31.949Z,7.60
2019-05-05T00:15:17.806Z,7.60
2019-05-05T00:17:47.114Z,7.60
2019-05-05T00:20:16.490Z,7.60
2019-05-05T00:22:45.934Z,7.60
2019-05-05T00:25:15.614Z,7.40
2019-05-05T00:27:45.321Z,7.40
2019-05-05T00:30:15.085Z,7.20
2019-05-05T00:32:44.458Z,7.10
2019-05-05T00:35:14.839Z,7.00
2019-05-05T00:37:45.058Z,6.80
2019-05-05T00:40:15.228Z,6.70
2019-05-05T00:42:45.595Z,6.70
2019-05-05T00:45:15.440Z,6.60
2019-05-05T00:47:49.752Z,6.50
2019-05-05T00:50:20.695Z,6.40
2019-05-05T00:52:50.022Z,6.40
2019-05-05T00:55:19.438Z,6.30
2019-05-05T00:57:48.774Z,6.20
2019-05-05T01:00:36.261Z,6.10
2019-05-05T01:03:05.644Z,6.10
2019-05-05T01:06:04.565Z,6.00
2019-05-05T01:08:35.255Z,6.00
2019-05-05T01:11:04.938Z,5.90
2019-05-05T01:13:35.198Z,5.80
2019-05-05T01:16:04.963Z,5.90
2019-05-05T01:18:35.121Z,5.80
2019-05-05T01:21:05.278Z,5.80
2019-05-05T01:23:35.084Z,5.80
2019-05-05T01:26:05.210Z,5.70
2019-05-05T01:28:35.570Z,5.70
2019-05-05T01:31:09.535Z,5.70
2019-05-05T01:33:57.841Z,5.70
2019-05-05T01:36:27.194Z,5.70
2019-05-05T01:39:04.271Z,5.70
2019-05-05T01:41:37.364Z,5.60
2019-05-05T01:44:06.693Z,5.60
2019-05-05T01:46:36.008Z,5.60
2019-05-05T01:49:05.555Z,5.50
2019-05-05T01:51:35.558Z,5.50
2019-05-05T01:54:05.466Z,5.50
2019-05-05T01:56:35.635Z,5.50
2019-05-05T01:59:05.328Z,5.60
2019-05-05T02:01:35.327Z,5.50
2019-05-05T02:04:05.592Z,5.50
2019-05-05T02:06:35.232Z,5.50
2019-05-05T02:09:06.685Z,5.50
2019-05-05T02:11:35.969Z,5.40
2019-05-05T02:14:05.397Z,5.40
2019-05-05T02:16:34.888Z,5.40
2019-05-05T02:19:05.025Z,5.30
2019-05-05T02:21:35.255Z,5.30
2019-05-05T02:24:05.532Z,5.20
2019-05-05T02:26:35.455Z,5.20
2019-05-05T02:29:11.166Z,5.20
2019-05-05T02:31:59.499Z,5.20
2019-05-05T02:34:31.692Z,5.10
2019-05-05T02:37:01.027Z,5.20
2019-05-05T02:39:34.244Z,5.10
2019-05-05T02:42:05.706Z,5.10
2019-05-05T02:44:35.779Z,5.10
2019-05-05T02:47:15.787Z,5.10
2019-05-05T02:49:46.266Z,5.00
2019-05-05T02:52:17.635Z,5.00
2019-05-05T02:54:47.330Z,5.00
2019-05-05T02:57:16.966Z,5.00
2019-05-05T02:59:53.924Z,5.00
2019-05-05T03:02:24.946Z,5.00
2019-05-05T03:04:54.855Z,4.90
2019-05-05T03:07:27.452Z,4.90
2019-05-05T03:09:58.998Z,5.00
2019-05-05T03:12:30.492Z,4.90
2019-05-05T03:15:04.153Z,4.90
2019-05-05T03:17:34.166Z,4.90
2019-05-05T03:20:04.262Z,4.90
2019-05-05T03:22:34.142Z,4.80
2019-05-05T03:25:04.672Z,4.80
2019-05-05T03:27:34.509Z,4.80
2019-05-05T03:30:05.347Z,4.80
2019-05-05T03:32:36.073Z,4.70
2019-05-05T03:35:06.098Z,4.70
2019-05-05T03:37:36.327Z,4.70
2019-05-05T03:40:14.794Z,4.70
2019-05-05T03:42:58.212Z,4.70
2019-05-05T03:45:34.064Z,4.70
2019-05-05T03:48:04.602Z,4.60
2019-05-05T03:50:34.234Z,4.60
2019-05-05T03:53:04.932Z,4.70
2019-05-05T03:55:36.178Z,4.60
2019-05-05T03:58:05.726Z,4.60
2019-05-05T04:01:28.174Z,4.60
2019-05-05T04:04:16.550Z,4.60
2019-05-05T04:06:46.867Z,4.60
2019-05-05T04:09:16.194Z,4.60
2019-05-05T04:11:45.566Z,4.60
2019-05-05T04:14:18.237Z,4.60
2019-05-05T04:17:06.309Z,4.60
2019-05-05T04:19:37.058Z,4.50
2019-05-05T04:22:06.567Z,4.50
2019-05-05T04:24:35.866Z,4.40
2019-05-05T04:27:05.238Z,4.50
2019-05-05T04:29:34.734Z,4.40
2019-05-05T04:32:05.423Z,4.40
2019-05-05T04:34:34.911Z,4.40
2019-05-05T04:37:04.374Z,4.30
2019-05-05T04:39:34.454Z,4.40
2019-05-05T04:42:04.707Z,4.30
2019-05-05T04:44:34.899Z,4.30
2019-05-05T04:47:14.461Z,4.30
2019-05-05T04:50:12.226Z,4.30
2019-05-05T04:52:43.855Z,4.30
2019-05-05T04:55:13.868Z,4.30
2019-05-05T04:57:43.786Z,4.30
2019-05-05T05:00:13.846Z,4.40
2019-05-05T05:03:14.619Z,4.30
2019-05-05T05:06:11.774Z,4.30
2019-05-05T05:08:41.175Z,4.30
2019-05-05T05:11:10.573Z,4.20
2019-05-05T05:13:40.006Z,4.30
2019-05-05T05:16:09.410Z,4.30
2019-05-05T05:18:38.832Z,4.30
2019-05-05T05:21:08.148Z,4.30
2019-05-05T05:23:37.485Z,4.30
2019-05-05T05:26:06.815Z,4.30
2019-05-05T05:28:36.154Z,4.30
2019-05-05T05:31:05.668Z,4.30
2019-05-05T05:33:36.405Z,4.30
2019-05-05T05:36:06.151Z,4.20
2019-05-05T05:38:36.897Z,4.20
2019-05-05T05:41:14.010Z,4.20
2019-05-05T05:44:08.380Z,4.20
2019-05-05T05:47:09.103Z,4.20
2019-05-05T05:49:54.357Z,4.20
2019-05-05T05:52:25.020Z,4.20
2019-05-05T05:54:55.180Z,4.20
2019-05-05T05:57:27.924Z,4.20
2019-05-05T06:00:04.145Z,4.20
2019-05-05T06:02:33.766Z,4.10
2019-05-05T06:05:04.362Z,4.10
2019-05-05T06:07:34.365Z,4.10
2019-05-05T06:10:07.219Z,4.20
2019-05-05T06:12:37.355Z,4.10
2019-05-05T06:15:07.234Z,4.10
2019-05-05T06:17:37.990Z,4.10
2019-05-05T06:20:07.972Z,4.10
2019-05-05T06:22:44.530Z,4.20
2019-05-05T06:25:15.987Z,4.20
2019-05-05T06:27:45.547Z,4.20
2019-05-05T06:30:15.907Z,4.30
2019-05-05T06:32:46.068Z,4.30
2019-05-05T06:35:17.812Z,4.40
2019-05-05T06:37:56.413Z,4.40
2019-05-05T06:40:36.195Z,4.40
2019-05-05T06:43:30.884Z,4.40
2019-05-05T06:46:04.068Z,4.50
2019-05-05T06:48:34.400Z,4.60
2019-05-05T06:51:06.324Z,4.60
2019-05-05T06:53:36.013Z,4.50
2019-05-05T06:56:08.875Z,4.50
2019-05-05T06:58:38.710Z,4.60
2019-05-05T07:01:08.590Z,4.60
2019-05-05T07:03:38.850Z,4.60
2019-05-05T07:06:09.209Z,4.70
2019-05-05T07:08:39.056Z,4.70
2019-05-05T07:11:08.772Z,4.80
2019-05-05T07:13:38.554Z,4.80
2019-05-05T07:16:15.026Z,4.80
2019-05-05T07:18:48.453Z,4.80
2019-05-05T07:21:18.101Z,4.90
2019-05-05T07:23:47.590Z,4.80
2019-05-05T07:26:17.014Z,4.80
2019-05-05T07:28:46.453Z,4.80
2019-05-05T07:31:15.891Z,4.80
2019-05-05T07:33:45.284Z,4.80
2019-05-05T07:36:34.089Z,4.80
2019-05-05T07:39:04.873Z,4.80
2019-05-05T07:41:34.328Z,4.80
2019-05-05T07:44:04.785Z,4.80
2019-05-05T07:46:34.733Z,4.90
2019-05-05T07:49:04.231Z,4.90
2019-05-05T07:51:33.768Z,5.00
2019-05-05T07:54:03.835Z,5.00
2019-05-05T07:56:34.417Z,4.90
2019-05-05T07:59:04.098Z,5.00
2019-05-05T08:01:33.867Z,5.00
2019-05-05T08:04:04.477Z,5.00
2019-05-05T08:06:34.135Z,5.00
2019-05-05T08:09:05.448Z,5.00
2019-05-05T08:11:34.911Z,5.00
2019-05-05T08:14:04.326Z,5.00
2019-05-05T08:16:53.486Z,5.00
2019-05-05T08:19:44.742Z,5.10
2019-05-05T08:22:14.249Z,5.10
2019-05-05T08:25:05.671Z,5.10
2019-05-05T08:27:53.803Z,5.20
2019-05-05T08:30:29.060Z,5.10
2019-05-05T08:32:58.802Z,5.10
2019-05-05T08:35:28.226Z,5.10
2019-05-05T08:37:57.701Z,5.20
2019-05-05T08:40:27.047Z,5.20
2019-05-05T08:42:56.402Z,5.30
2019-05-05T08:45:26.737Z,5.30
2019-05-05T08:47:57.013Z,5.30
2019-05-05T08:50:27.229Z,5.30
2019-05-05T08:52:56.747Z,5.40
2019-05-05T08:55:28.428Z,5.40
2019-05-05T08:57:57.318Z,5.40
2019-05-05T09:00:26.794Z,5.50
2019-05-05T09:02:56.216Z,5.50
2019-05-05T09:05:25.676Z,5.60
2019-05-05T09:07:55.079Z,5.60
2019-05-05T09:10:24.440Z,5.50
2019-05-05T09:12:54.383Z,5.60
2019-05-05T09:15:24.256Z,5.50
2019-05-05T09:17:54.514Z,5.50
2019-05-05T09:20:24.362Z,5.60
2019-05-05T09:22:57.125Z,5.50
2019-05-05T09:25:38.574Z,5.50
2019-05-05T09:28:23.863Z,5.50
2019-05-05T09:30:53.715Z,5.50
2019-05-05T09:33:24.775Z,5.50
2019-05-05T09:35:54.309Z,5.60
2019-05-05T09:38:23.938Z,5.60
2019-05-05T09:40:54.428Z,5.70
2019-05-05T09:43:24.171Z,5.70
2019-05-05T09:45:54.433Z,5.70
2019-05-05T09:48:24.415Z,5.80
2019-05-05T09:50:54.186Z,5.70
2019-05-05T09:53:24.079Z,5.80
2019-05-05T09:55:54.823Z,5.80
2019-05-05T09:58:24.326Z,5.80
2019-05-05T10:00:54.731Z,5.80
2019-05-05T10:03:24.363Z,5.80
2019-05-05T10:05:54.025Z,5.90
2019-05-05T10:08:23.750Z,6.00
2019-05-05T10:10:54.744Z,6.10
2019-05-05T10:13:24.360Z,6.10
2019-05-05T10:15:54.925Z,6.10
2019-05-05T10:18:25.478Z,6.00
2019-05-05T10:20:55.189Z,6.00
2019-05-05T10:23:26.174Z,6.00
2019-05-05T10:26:00.062Z,6.10
2019-05-05T10:28:29.527Z,6.00
2019-05-05T10:30:58.875Z,6.10
2019-05-05T10:33:28.278Z,6.10
2019-05-05T10:35:58.201Z,6.00
2019-05-05T10:38:27.519Z,6.10
2019-05-05T10:40:56.922Z,6.00
2019-05-05T10:43:26.309Z,6.00
2019-05-05T10:45:55.677Z,6.00
2019-05-05T10:48:24.992Z,6.00
2019-05-05T10:50:54.434Z,6.00
2019-05-05T10:53:23.849Z,6.00
2019-05-05T10:55:53.960Z,6.00
2019-05-05T10:58:24.380Z,6.00
2019-05-05T11:01:04.248Z,6.10
2019-05-05T11:03:34.406Z,6.00
2019-05-05T11:06:06.317Z,6.10
2019-05-05T11:08:35.961Z,6.20
2019-05-05T11:11:05.369Z,6.10
2019-05-05T11:13:34.702Z,6.10
2019-05-05T11:16:04.150Z,6.10
2019-05-05T11:18:34.681Z,6.00
2019-05-05T11:21:04.358Z,6.00
2019-05-05T11:23:34.549Z,6.10
2019-05-05T11:26:07.026Z,6.10
2019-05-05T11:28:36.355Z,6.10
2019-05-05T11:31:05.659Z,6.20
2019-05-05T11:33:54.209Z,6.10
2019-05-05T11:36:51.764Z,6.10
2019-05-05T11:39:23.432Z,6.10
2019-05-05T11:41:54.622Z,6.10
2019-05-05T11:44:24.246Z,6.10
2019-05-05T11:46:54.727Z,6.10
2019-05-05T11:49:24.593Z,6.20
2019-05-05T11:51:54.412Z,6.10
2019-05-05T11:54:24.542Z,5.90
2019-05-05T11:56:54.215Z,5.80
2019-05-05T11:59:23.904Z,5.70
2019-05-05T12:01:54.942Z,5.60
2019-05-05T12:04:24.494Z,5.60
2019-05-05T12:06:53.821Z,5.50
2019-05-05T12:09:36.336Z,5.50
2019-05-05T12:12:05.753Z,5.60
2019-05-05T12:14:35.302Z,5.60
2019-05-05T12:17:04.685Z,5.60
2019-05-05T12:19:34.076Z,5.80
2019-05-05T12:22:04.465Z,5.80
2019-05-05T12:24:37.175Z,5.70
2019-05-05T12:27:24.669Z,5.80
2019-05-05T12:30:01.117Z,5.70
2019-05-05T12:32:30.560Z,5.50
2019-05-05T12:34:59.921Z,5.30
2019-05-05T12:37:29.305Z,5.20
2019-05-05T12:39:58.585Z,5.10
2019-05-05T12:42:27.973Z,5.10
2019-05-05T12:45:04.204Z,5.10
2019-05-05T12:47:57.821Z,5.20
2019-05-05T12:50:27.261Z,5.20
2019-05-05T12:52:56.671Z,5.30
2019-05-05T12:55:40.535Z,5.30
2019-05-05T12:57:57.125Z,5.30
2019-05-05T13:00:26.543Z,5.30
2019-05-05T13:02:55.977Z,5.30
2019-05-05T13:05:25.429Z,5.30
2019-05-05T13:07:54.834Z,5.30
2019-05-05T13:10:24.763Z,5.30
2019-05-05T13:12:54.401Z,5.40
2019-05-05T13:15:24.773Z,5.40
2019-05-05T13:17:54.317Z,5.40
2019-05-05T13:20:44.381Z,5.50
2019-05-05T13:23:44.431Z,5.50
2019-05-05T13:26:20.955Z,5.60
2019-05-05T13:28:50.377Z,5.60
2019-05-05T13:31:21.889Z,5.70
2019-05-05T13:33:50.921Z,5.70
2019-05-05T13:36:20.315Z,5.70
2019-05-05T13:38:52.040Z,5.70
2019-05-05T13:41:20.843Z,5.70
2019-05-05T13:43:50.599Z,5.80
2019-05-05T13:46:27.701Z,5.80
2019-05-05T13:49:18.333Z,5.80
2019-05-05T13:51:47.739Z,5.90
2019-05-05T13:54:17.162Z,5.90
2019-05-05T13:56:46.601Z,5.90
2019-05-05T13:59:15.915Z,5.90
2019-05-05T14:01:45.335Z,5.80
2019-05-05T14:04:14.795Z,5.80
2019-05-05T14:06:46.235Z,5.80
2019-05-05T14:09:15.335Z,5.80
2019-05-05T14:11:44.741Z,5.90
2019-05-05T14:14:14.147Z,5.90
2019-05-05T14:16:44.653Z,6.00
2019-05-05T14:19:14.818Z,6.00
2019-05-05T14:21:44.722Z,5.90
2019-05-05T14:24:29.722Z,5.90
2019-05-05T14:26:59.179Z,5.90
2019-05-05T14:29:52.252Z,5.90
2019-05-05T14:32:24.014Z,5.90
2019-05-05T14:35:00.166Z,5.90
2019-05-05T14:37:36.623Z,5.80
2019-05-05T14:40:06.349Z,5.80
2019-05-05T14:42:35.723Z,5.80
2019-05-05T14:45:05.240Z,5.80
2019-05-05T14:47:34.691Z,5.80
2019-05-05T14:50:04.747Z,5.80
2019-05-05T14:52:34.353Z,5.60
2019-05-05T14:55:03.996Z,5.50
2019-05-05T14:57:33.684Z,5.40
2019-05-05T15:00:09.455Z,5.40
2019-05-05T15:02:38.855Z,5.40
2019-05-05T15:05:26.058Z,5.30
2019-05-05T15:08:13.610Z,5.30
2019-05-05T15:11:03.738Z,5.20
2019-05-05T15:13:33.612Z,5.20
2019-05-05T15:16:04.041Z,5.20
2019-05-05T15:18:34.576Z,5.20
2019-05-05T15:21:04.222Z,5.10
2019-05-05T15:23:34.463Z,5.10
2019-05-05T15:26:04.551Z,5.20
2019-05-05T15:28:34.133Z,5.20
2019-05-05T15:31:03.488Z,5.20
2019-05-05T15:33:33.616Z,5.20
2019-05-05T15:36:04.431Z,5.20
2019-05-05T15:38:34.866Z,5.20
2019-05-05T15:41:04.644Z,5.20
2019-05-05T15:43:34.101Z,5.20
2019-05-05T15:46:04.438Z,5.20
2019-05-05T15:48:34.135Z,5.20
2019-05-05T15:51:04.210Z,5.20
2019-05-05T15:53:33.893Z,5.20
2019-05-05T15:56:04.485Z,5.20
2019-05-05T15:58:34.363Z,5.30
2019-05-05T16:01:03.965Z,5.30
2019-05-05T16:03:33.421Z,5.30
2019-05-05T16:06:03.743Z,5.30
2019-05-05T16:08:34.011Z,5.30
2019-05-05T16:11:03.967Z,5.30
2019-05-05T16:13:35.277Z,5.30
2019-05-05T16:16:18.778Z,5.30
2019-05-05T16:19:03.142Z,5.30
2019-05-05T16:21:56.741Z,5.30
2019-05-05T16:24:28.258Z,5.30
2019-05-05T16:26:57.640Z,5.40
2019-05-05T16:29:26.976Z,5.40
2019-05-05T16:31:56.556Z,5.40
2019-05-05T16:34:25.921Z,5.40
2019-05-05T16:36:56.986Z,5.40
2019-05-05T16:39:26.385Z,5.40
2019-05-05T16:41:55.769Z,5.30
2019-05-05T16:44:25.128Z,5.30
2019-05-05T16:46:57.237Z,5.40
2019-05-05T16:49:25.571Z,5.40
2019-05-05T16:52:04.065Z,5.40
2019-05-05T16:54:55.852Z,5.40
2019-05-05T16:57:33.432Z,5.40
2019-05-05T16:59:56.391Z,5.40
2019-05-05T17:02:25.814Z,5.40
2019-05-05T17:04:55.202Z,5.40
2019-05-05T17:07:24.633Z,5.40
2019-05-05T17:09:54.014Z,5.40
2019-05-05T17:12:24.331Z,5.40
2019-05-05T17:15:04.473Z,5.40
2019-05-05T17:17:41.303Z,5.40
2019-05-05T17:20:14.138Z,5.40
2019-05-05T17:23:04.305Z,5.40
2019-05-05T17:25:34.286Z,5.40
2019-05-05T17:28:04.653Z,5.40
2019-05-05T17:30:34.270Z,5.40
2019-05-05T17:33:03.903Z,5.30
2019-05-05T17:35:33.939Z,5.30
2019-05-05T17:38:13.737Z,5.30
2019-05-05T17:41:03.667Z,5.30
2019-05-05T17:43:44.887Z,5.30
2019-05-05T17:46:40.849Z,5.30
2019-05-05T17:49:44.191Z,5.30
2019-05-05T17:52:21.410Z,5.30
2019-05-05T17:54:54.014Z,5.30
2019-05-05T17:57:23.649Z,5.30
2019-05-05T17:59:53.618Z,5.20
2019-05-05T18:02:23.693Z,5.20
2019-05-05T18:04:54.125Z,5.20
2019-05-05T18:07:29.330Z,5.20
2019-05-05T18:10:26.739Z,5.20
2019-05-05T18:13:14.284Z,5.20
2019-05-05T18:15:51.210Z,5.20
2019-05-05T18:18:20.619Z,5.20
2019-05-05T18:20:49.906Z,5.20
2019-05-05T18:23:19.249Z,5.20
2019-05-05T18:25:48.617Z,5.10
2019-05-05T18:28:20.050Z,5.10
2019-05-05T18:30:49.022Z,5.10
2019-05-05T18:33:18.435Z,5.10
2019-05-05T18:35:47.865Z,5.10
2019-05-05T18:38:17.295Z,5.10
2019-05-05T18:40:47.412Z,5.10
2019-05-05T18:43:26.114Z,5.00
2019-05-05T18:46:04.607Z,5.10
2019-05-05T18:48:34.512Z,5.00
2019-05-05T18:51:04.933Z,5.00
2019-05-05T18:53:34.379Z,5.00
2019-05-05T18:56:06.097Z,5.00
2019-05-05T18:58:35.938Z,5.00
2019-05-05T19:01:24.258Z,5.00
2019-05-05T19:04:11.071Z,5.00
2019-05-05T19:07:05.473Z,5.00
2019-05-05T19:09:34.925Z,5.00
2019-05-05T19:12:04.299Z,4.90
2019-05-05T19:14:35.018Z,4.90
2019-05-05T19:17:04.703Z,4.90
2019-05-05T19:19:34.498Z,4.90
2019-05-05T19:22:08.092Z,4.90
2019-05-05T19:24:37.407Z,4.80
2019-05-05T19:27:06.856Z,4.80
2019-05-05T19:29:36.263Z,4.80
2019-05-05T19:32:06.206Z,4.80
2019-05-05T19:34:35.556Z,4.80
2019-05-05T19:37:04.929Z,4.80
2019-05-05T19:39:34.502Z,4.80
2019-05-05T19:42:04.863Z,4.80
2019-05-05T19:44:34.555Z,4.70
2019-05-05T19:47:10.420Z,4.80
2019-05-05T19:49:42.128Z,4.80
2019-05-05T19:52:13.438Z,4.80
2019-05-05T19:54:47.117Z,4.80
2019-05-05T19:57:14.443Z,4.80
2019-05-05T19:59:44.695Z,4.80
2019-05-05T20:02:14.343Z,4.80
2019-05-05T20:04:44.505Z,4.80
2019-05-05T20:07:14.131Z,4.80
2019-05-05T20:09:43.705Z,4.80
2019-05-05T20:12:14.712Z,4.80
2019-05-05T20:14:44.375Z,4.80
2019-05-05T20:17:34.259Z,4.80
2019-05-05T20:20:04.767Z,4.80
2019-05-05T20:22:34.776Z,4.80
2019-05-05T20:25:04.867Z,4.80
2019-05-05T20:27:34.423Z,4.80
2019-05-05T20:30:06.652Z,4.80
2019-05-05T20:32:56.379Z,4.80
2019-05-05T20:35:30.278Z,4.80
2019-05-05T20:38:04.747Z,4.80
2019-05-05T20:40:36.590Z,4.80
2019-05-05T20:43:06.036Z,4.80
2019-05-05T20:45:35.766Z,4.80
2019-05-05T20:48:05.294Z,4.80
2019-05-05T20:50:34.666Z,4.80
2019-05-05T20:53:04.816Z,4.80
2019-05-05T20:55:34.622Z,4.80
2019-05-05T20:58:04.689Z,4.80
2019-05-05T21:00:34.887Z,4.90
2019-05-05T21:03:04.847Z,4.90
2019-05-05T21:05:34.545Z,4.90
2019-05-05T21:08:04.871Z,4.90
2019-05-05T21:10:34.870Z,4.90
2019-05-05T21:13:04.510Z,4.90
2019-05-05T21:15:34.250Z,4.90
2019-05-05T21:18:04.895Z,4.90
2019-05-05T21:20:34.803Z,4.90
2019-05-05T21:23:22.040Z,4.90
2019-05-05T21:25:54.934Z,4.90
2019-05-05T21:28:24.314Z,4.90
2019-05-05T21:30:54.065Z,4.90
2019-05-05T21:33:24.009Z,4.90
2019-05-05T21:35:55.104Z,4.90
2019-05-05T21:38:24.634Z,4.90
2019-05-05T21:40:53.989Z,4.90
2019-05-05T21:43:23.394Z,4.90
2019-05-05T21:45:53.744Z,4.90
2019-05-05T21:48:24.320Z,4.90
2019-05-05T21:51:15.851Z,4.90
2019-05-05T21:53:50.361Z,4.90
2019-05-05T21:56:45.117Z,4.90
2019-05-05T21:59:14.497Z,4.80
2019-05-05T22:01:49.208Z,4.80
2019-05-05T22:04:15.147Z,4.80
2019-05-05T22:06:44.701Z,4.80
2019-05-05T22:09:14.664Z,4.80
2019-05-05T22:11:44.153Z,4.80
2019-05-05T22:14:14.005Z,4.80
2019-05-05T22:16:44.594Z,4.80
2019-05-05T22:19:14.629Z,4.80
2019-05-05T22:21:48.329Z,4.80
2019-05-05T22:24:19.194Z,4.80
2019-05-05T22:26:48.613Z,4.90
2019-05-05T22:29:17.961Z,4.80
2019-05-05T22:31:47.334Z,4.80
2019-05-05T22:34:16.797Z,4.80
2019-05-05T22:36:46.213Z,4.80
2019-05-05T22:39:17.106Z,4.80
2019-05-05T22:41:46.833Z,4.80
2019-05-05T22:44:16.237Z,4.80
2019-05-05T22:46:45.649Z,4.80
2019-05-05T22:49:15.093Z,4.80
2019-05-05T22:51:44.841Z,4.80
2019-05-05T22:54:14.968Z,4.80
2019-05-05T22:56:44.879Z,4.80
2019-05-05T22:59:14.385Z,4.80
2019-05-05T23:01:43.827Z,4.80
2019-05-05T23:04:31.241Z,4.80
2019-05-05T23:07:15.611Z,4.80
2019-05-05T23:09:44.977Z,4.80
2019-05-05T23:12:14.330Z,4.80
2019-05-05T23:14:43.815Z,4.80
2019-05-05T23:17:38.122Z,4.80
2019-05-05T23:20:16.274Z,4.80
2019-05-05T23:22:57.461Z,4.80
2019-05-05T23:25:33.989Z,4.80
2019-05-05T23:28:04.098Z,4.80
2019-05-05T23:30:41.176Z,4.80
2019-05-05T23:33:04.581Z,4.80
2019-05-05T23:35:34.406Z,4.80
2019-05-05T23:38:04.017Z,4.80
2019-05-05T23:40:33.995Z,4.80
2019-05-05T23:43:04.502Z,4.70
2019-05-05T23:45:34.194Z,4.70
2019-05-05T23:48:03.811Z,4.70
2019-05-05T23:50:33.835Z,4.70
2019-05-05T23:53:03.573Z,4.70
2019-05-05T23:55:34.416Z,4.70
2019-05-05T23:58:24.017Z,4.70
